Portada
METAR-TAF:

METAR-TAF

Aeroports :

Almagro, Espanya

latitud: 38-57-11N, longitud: 3-44-29W, altitud: 629 m

Observació

L'informe es va fer fa 22 minuts, a les 17:00 UTC
Vent 7 kt del Nord-Est, variant entre Nord i Est
Temperatura 16°C
Humitat 77%
Pressió 1013 hPa
Visibilitat 10 km o més
Escasses núvols a una alçada de 1500 ft
Núvols disperses a una alçada de 2000 ft
Cel ennuvolat a una alçada de 2500 ft

METAR: LEAO 191700Z 05007KT 010V100 9999 FEW015 SCT020 BKN025 16/12 Q1013

Hora: 19:22 (17:22 UTC)

Pronòstic

L'informe es va fer fa 3 hores i 22 minuts, a les 14:00 UTC
Pronòstic vàlid del 19 a les 15 UTC al 19 a les 24 UTC
Vent 8 kt del Est/Nord-Est
Visibilitat 10 km o més
Núvols disperses a una alçada de 1500 ft
Cel ennuvolat a una alçada de 4000 ft

TAF: LEAO 191400Z 1915/1924 07008KT 9999 SCT015 BKN040

Observacions i pronòstics meteorològics de més de 4000 aeroports (METAR i TAF).

Les estacions disponibles són els punts grocs i vermells al mapa.

Posi el ratolí al punt desitjat per veure el nom de l'estació.

Feu clic per veure les observacions i els pronòstics meteorològics.

Per canviar el mapa: feu clic els botons verds amb una creu de color negre per apropar; al botó verd amb un guió per allunyar la imatge; o en les fletxes verdes per a mapes adjacents.


METAR-TAF: